createdAt,value
2023-03-29T00:00:51.102Z,-4.37
2023-03-29T00:03:54.857Z,-4.19
2023-03-29T00:07:04.620Z,-4.09
2023-03-29T00:10:11.247Z,-4.07
2023-03-29T00:13:14.701Z,-4.36
2023-03-29T00:16:19.875Z,-4.23
2023-03-29T00:19:23.442Z,-4.13
2023-03-29T00:22:27.535Z,-4.28
2023-03-29T00:25:31.053Z,-4.42
2023-03-29T00:28:34.513Z,-4.31
2023-03-29T00:31:39.311Z,-4.52
2023-03-29T00:34:46.225Z,-4.71
2023-03-29T00:37:50.969Z,-4.68
2023-03-29T00:40:54.568Z,-4.61
2023-03-29T00:44:00.903Z,-4.51
2023-03-29T00:47:07.308Z,-4.46
2023-03-29T00:50:17.369Z,-4.51
2023-03-29T00:53:26.492Z,-4.38
2023-03-29T00:56:35.227Z,-4.51
2023-03-29T00:59:41.316Z,-4.51
2023-03-29T01:02:51.139Z,-4.28
2023-03-29T01:06:00.446Z,-4.34
2023-03-29T01:09:10.408Z,-4.36
2023-03-29T01:12:18.598Z,-4.38
2023-03-29T01:15:28.367Z,-4.44
2023-03-29T01:18:34.203Z,-4.59
2023-03-29T01:21:45.284Z,-4.61
2023-03-29T01:25:00.059Z,-4.76
2023-03-29T01:28:10.138Z,-4.60
2023-03-29T01:31:18.945Z,-4.42
2023-03-29T01:34:28.665Z,-4.55
2023-03-29T01:37:37.782Z,-4.45
2023-03-29T01:40:41.628Z,-4.48
2023-03-29T01:43:53.441Z,-4.36
2023-03-29T01:47:06.660Z,-4.23
2023-03-29T01:50:17.297Z,-4.29
2023-03-29T01:53:27.529Z,-4.31
2023-03-29T01:56:36.911Z,-4.39
2023-03-29T01:59:45.965Z,-4.26
2023-03-29T02:02:51.595Z,-4.17
2023-03-29T02:05:58.290Z,-4.33
2023-03-29T02:09:04.980Z,-4.04
2023-03-29T02:12:10.772Z,-4.31
2023-03-29T02:15:19.159Z,-4.38
2023-03-29T02:18:24.877Z,-4.42
2023-03-29T02:21:34.086Z,-4.35
2023-03-29T02:24:40.957Z,-4.51
2023-03-29T02:27:45.555Z,-4.16
2023-03-29T02:30:56.740Z,-4.35
2023-03-29T02:34:03.783Z,-4.34
2023-03-29T02:37:11.838Z,-4.29
2023-03-29T02:40:17.054Z,-4.18
2023-03-29T02:46:29.434Z,-4.43
2023-03-29T02:49:33.738Z,-4.62
2023-03-29T02:52:41.269Z,-4.59
2023-03-29T02:55:46.993Z,-4.58
2023-03-29T02:58:50.435Z,-4.51
2023-03-29T03:01:55.336Z,-4.73
2023-03-29T03:04:59.504Z,-4.58
2023-03-29T03:08:04.682Z,-4.72
2023-03-29T03:11:08.599Z,-4.97
2023-03-29T03:14:12.558Z,-4.92
2023-03-29T03:17:18.910Z,-4.96
2023-03-29T03:20:24.297Z,-5.11
2023-03-29T03:23:28.731Z,-5.28
2023-03-29T03:26:32.798Z,-5.27
2023-03-29T03:29:38.595Z,-5.32
2023-03-29T03:33:03.958Z,-5.32
2023-03-29T03:36:42.808Z,-5.33
2023-03-29T03:39:48.584Z,-5.22
2023-03-29T03:42:52.333Z,-5.06
2023-03-29T03:45:56.522Z,-5.07
2023-03-29T03:49:03.023Z,-4.90
2023-03-29T03:52:09.749Z,-5.02
2023-03-29T03:55:13.191Z,-5.16
2023-03-29T03:58:28.685Z,-5.13
2023-03-29T04:01:33.602Z,-5.11
2023-03-29T04:04:50.447Z,-5.00
2023-03-29T04:07:56.223Z,-4.93
2023-03-29T04:11:18.242Z,-5.13
2023-03-29T04:14:22.438Z,-5.10
2023-03-29T04:17:46.164Z,-5.07
2023-03-29T04:20:58.465Z,-4.77
2023-03-29T04:24:03.205Z,-4.89
2023-03-29T04:27:09.579Z,-4.73
2023-03-29T04:30:14.444Z,-4.92
2023-03-29T04:33:46.872Z,-5.07
2023-03-29T04:36:52.737Z,-4.86
2023-03-29T04:40:00.526Z,-4.81
2023-03-29T04:43:07.233Z,-5.04
2023-03-29T04:46:11.122Z,-4.95
2023-03-29T04:49:40.652Z,-5.02
2023-03-29T04:52:50.955Z,-4.98
2023-03-29T04:55:55.679Z,-4.81
2023-03-29T04:59:19.068Z,-4.63
2023-03-29T05:02:22.549Z,-4.65
2023-03-29T05:05:27.390Z,-4.48
2023-03-29T05:08:33.067Z,-4.50
2023-03-29T05:11:45.854Z,-4.08
2023-03-29T05:14:50.057Z,-3.93
2023-03-29T05:17:54.601Z,-3.99
2023-03-29T05:20:58.889Z,-4.16
2023-03-29T05:24:06.373Z,-4.30
2023-03-29T05:27:36.282Z,-4.27
2023-03-29T05:30:44.753Z,-4.12
2023-03-29T05:34:07.112Z,-4.08
2023-03-29T05:37:14.119Z,-4.07
2023-03-29T05:40:27.539Z,-3.79
2023-03-29T05:44:03.738Z,-3.59
2023-03-29T05:47:08.245Z,-3.50
2023-03-29T05:50:12.092Z,-3.25
2023-03-29T05:53:15.954Z,-3.29
2023-03-29T05:56:22.557Z,-3.16
2023-03-29T05:59:28.460Z,-2.87
2023-03-29T06:02:33.573Z,-2.71
2023-03-29T06:05:37.327Z,-2.60
2023-03-29T06:08:41.888Z,-2.45
2023-03-29T06:11:56.675Z,-2.42
2023-03-29T06:15:08.618Z,-2.34
2023-03-29T06:18:23.475Z,-2.17
2023-03-29T06:21:28.642Z,-2.07
2023-03-29T06:24:32.473Z,-1.90
2023-03-29T06:27:43.172Z,-1.73
2023-03-29T06:30:47.803Z,-1.62
2023-03-29T06:33:51.479Z,-1.26
2023-03-29T06:37:05.969Z,-1.36
2023-03-29T06:40:10.947Z,-1.26
2023-03-29T06:43:22.875Z,-0.97
2023-03-29T06:46:35.370Z,-0.82
2023-03-29T06:49:42.736Z,-0.66
2023-03-29T06:53:04.263Z,-0.50
2023-03-29T06:56:09.823Z,-0.26
2023-03-29T06:59:21.763Z,-0.16
2023-03-29T07:02:31.954Z,-0.07
2023-03-29T07:05:45.048Z,0.04
2023-03-29T07:08:52.640Z,0.30
2023-03-29T07:12:31.161Z,0.30
2023-03-29T07:15:38.743Z,0.69
2023-03-29T07:18:52.962Z,0.65
2023-03-29T07:22:16.542Z,0.76
2023-03-29T07:25:30.123Z,1.02
2023-03-29T07:28:35.603Z,1.08
2023-03-29T07:31:41.144Z,1.44
2023-03-29T07:35:05.946Z,1.58
2023-03-29T07:38:11.723Z,1.80
2023-03-29T07:41:21.289Z,1.83
2023-03-29T07:44:27.257Z,1.87
2023-03-29T07:47:33.094Z,2.09
2023-03-29T07:50:36.875Z,2.32
2023-03-29T07:53:41.508Z,2.31
2023-03-29T07:57:00.014Z,2.54
2023-03-29T08:00:30.019Z,2.54
2023-03-29T08:04:01.135Z,2.75
2023-03-29T08:07:24.923Z,2.96
2023-03-29T08:10:40.505Z,2.98
2023-03-29T08:14:09.179Z,3.38
2023-03-29T08:17:33.059Z,3.12
2023-03-29T08:20:38.157Z,3.27
2023-03-29T08:23:41.586Z,3.18
2023-03-29T08:26:50.517Z,3.30
2023-03-29T08:29:56.447Z,3.51
2023-03-29T08:33:00.116Z,3.57
2023-03-29T08:36:06.262Z,3.78
2023-03-29T08:39:13.401Z,3.88
2023-03-29T08:42:38.889Z,3.91
2023-03-29T08:45:54.708Z,4.21
2023-03-29T08:49:03.807Z,4.11
2023-03-29T08:52:23.774Z,4.13
2023-03-29T08:55:33.417Z,4.15
2023-03-29T08:58:58.693Z,4.21
2023-03-29T09:02:17.997Z,4.58
2023-03-29T09:05:31.382Z,4.79
2023-03-29T09:08:59.015Z,4.99
2023-03-29T09:12:16.275Z,5.15
2023-03-29T09:15:28.915Z,5.43
2023-03-29T09:19:08.122Z,5.43
2023-03-29T09:22:21.926Z,5.43
2023-03-29T09:25:38.350Z,5.16
2023-03-29T09:29:02.969Z,5.63
2023-03-29T09:32:17.051Z,5.82
2023-03-29T09:35:29.076Z,5.95
2023-03-29T09:38:41.619Z,6.17
2023-03-29T09:41:52.616Z,6.47
2023-03-29T09:45:02.123Z,6.45
2023-03-29T09:48:15.957Z,6.78
2023-03-29T09:51:28.288Z,6.18
2023-03-29T09:54:32.753Z,6.33
2023-03-29T09:58:18.422Z,6.32
2023-03-29T10:01:37.532Z,7.14
2023-03-29T10:04:44.652Z,7.04
2023-03-29T10:07:52.693Z,6.96
2023-03-29T10:10:58.937Z,6.78
2023-03-29T10:14:06.687Z,6.88
2023-03-29T10:17:17.174Z,6.91
2023-03-29T10:20:21.727Z,7.29
2023-03-29T10:23:25.205Z,7.59
2023-03-29T10:26:33.034Z,7.71
2023-03-29T10:29:41.272Z,7.36
2023-03-29T10:32:45.033Z,7.44
2023-03-29T10:35:49.599Z,7.45
2023-03-29T10:38:55.872Z,7.68
2023-03-29T10:42:01.410Z,7.81
2023-03-29T10:45:20.747Z,7.42
2023-03-29T10:48:26.890Z,7.55
2023-03-29T10:51:31.366Z,7.62
2023-03-29T10:54:34.884Z,7.87
2023-03-29T10:57:46.592Z,7.91
2023-03-29T11:00:56.334Z,8.00
2023-03-29T11:04:13.578Z,8.18
2023-03-29T11:07:29.546Z,8.47
2023-03-29T11:10:45.617Z,8.52
2023-03-29T11:13:59.761Z,8.75
2023-03-29T11:17:21.703Z,8.34
2023-03-29T11:20:35.565Z,8.33
2023-03-29T11:23:49.805Z,8.21
2023-03-29T11:27:07.308Z,8.65
2023-03-29T11:30:19.125Z,8.00
2023-03-29T11:33:38.834Z,8.61
2023-03-29T11:36:52.864Z,8.57
2023-03-29T11:40:16.195Z,8.39
2023-03-29T11:43:27.663Z,8.16
2023-03-29T11:46:37.922Z,9.05
2023-03-29T11:49:51.821Z,9.36
2023-03-29T11:53:00.726Z,8.87
2023-03-29T11:56:13.318Z,8.74
2023-03-29T11:59:24.073Z,9.22
2023-03-29T12:02:33.851Z,8.72
2023-03-29T12:05:45.578Z,8.80
2023-03-29T12:08:54.202Z,9.35
2023-03-29T12:12:07.857Z,9.41
2023-03-29T12:15:20.385Z,9.43
2023-03-29T12:18:29.118Z,9.20
2023-03-29T12:21:37.994Z,9.39
2023-03-29T12:24:47.164Z,9.26
2023-03-29T12:28:01.553Z,8.81
2023-03-29T12:31:17.980Z,9.00
2023-03-29T12:34:52.010Z,9.56
2023-03-29T12:38:21.681Z,9.28
2023-03-29T12:41:53.434Z,10.22
2023-03-29T12:45:40.197Z,10.07
2023-03-29T12:48:45.830Z,9.86
2023-03-29T12:51:50.628Z,9.27
2023-03-29T12:54:57.187Z,8.97
2023-03-29T12:58:06.732Z,9.47
2023-03-29T13:01:22.851Z,9.92
2023-03-29T13:04:38.906Z,10.52
2023-03-29T13:07:48.288Z,9.87
2023-03-29T13:10:57.890Z,10.40
2023-03-29T13:14:13.857Z,10.53
2023-03-29T13:17:35.569Z,10.20
2023-03-29T13:20:47.384Z,10.39
2023-03-29T13:24:05.674Z,10.85
2023-03-29T13:27:19.266Z,10.44
2023-03-29T13:30:28.997Z,11.14
2023-03-29T13:33:48.495Z,10.81
2023-03-29T13:37:03.896Z,10.51
2023-03-29T13:40:26.725Z,10.66
2023-03-29T13:43:53.138Z,10.56
2023-03-29T13:47:06.030Z,10.06
2023-03-29T13:50:18.984Z,10.72
2023-03-29T13:53:29.173Z,10.71
2023-03-29T13:56:39.925Z,10.71
2023-03-29T13:59:52.993Z,10.42
2023-03-29T14:02:59.290Z,11.01
2023-03-29T14:06:04.855Z,11.57
2023-03-29T14:09:10.745Z,11.52
2023-03-29T14:12:15.908Z,10.84
2023-03-29T14:15:25.019Z,10.84
2023-03-29T14:18:33.615Z,10.76
2023-03-29T14:21:37.002Z,10.44
2023-03-29T14:24:42.562Z,10.73
2023-03-29T14:27:46.850Z,10.69
2023-03-29T14:30:52.909Z,10.68
2023-03-29T14:33:58.000Z,10.88
2023-03-29T14:37:01.577Z,10.78
2023-03-29T14:40:09.035Z,10.50
2023-03-29T14:43:18.810Z,10.72
2023-03-29T14:46:24.163Z,10.49
2023-03-29T14:49:28.380Z,10.10
2023-03-29T14:52:36.015Z,9.92
2023-03-29T14:55:40.755Z,9.91
2023-03-29T14:58:47.831Z,10.50
2023-03-29T15:01:53.661Z,10.48
2023-03-29T15:04:59.799Z,10.25
2023-03-29T15:08:04.326Z,9.88
2023-03-29T15:11:15.636Z,9.86
2023-03-29T15:14:21.864Z,9.72
2023-03-29T15:17:43.133Z,9.35
2023-03-29T15:20:53.564Z,9.68
2023-03-29T15:23:59.040Z,9.61
2023-03-29T15:27:05.774Z,9.24
2023-03-29T15:30:16.813Z,9.32
2023-03-29T15:33:26.103Z,9.41
2023-03-29T15:36:29.545Z,9.36
2023-03-29T15:39:33.842Z,9.20
2023-03-29T15:42:37.580Z,9.36
2023-03-29T15:45:41.434Z,9.45
2023-03-29T15:48:49.515Z,9.09
2023-03-29T15:51:56.160Z,9.17
2023-03-29T15:54:59.644Z,8.81
2023-03-29T15:58:03.233Z,8.79
2023-03-29T16:01:13.757Z,8.78
2023-03-29T16:04:20.958Z,8.77
2023-03-29T16:07:24.332Z,8.87
2023-03-29T16:10:27.952Z,8.55
2023-03-29T16:13:33.846Z,8.56
2023-03-29T16:16:37.360Z,8.72
2023-03-29T16:19:44.756Z,8.65
2023-03-29T16:22:49.002Z,8.51
2023-03-29T16:25:52.600Z,8.48
2023-03-29T16:28:56.188Z,8.33
2023-03-29T16:32:00.174Z,8.43
2023-03-29T16:35:05.211Z,8.27
2023-03-29T16:38:09.411Z,8.44
2023-03-29T16:41:16.354Z,8.33
2023-03-29T16:44:24.760Z,8.40
2023-03-29T16:47:30.482Z,8.47
2023-03-29T16:50:35.209Z,8.38
2023-03-29T16:53:39.096Z,8.35
2023-03-29T16:56:42.589Z,8.29
2023-03-29T16:59:47.749Z,8.28
2023-03-29T17:02:51.128Z,8.32
2023-03-29T17:05:57.289Z,8.17
2023-03-29T17:09:01.180Z,7.99
2023-03-29T17:12:04.610Z,7.83
2023-03-29T17:15:10.754Z,7.48
2023-03-29T17:18:14.868Z,7.51
2023-03-29T17:21:19.794Z,7.62
2023-03-29T17:24:23.454Z,7.55
2023-03-29T17:27:26.771Z,7.22
2023-03-29T17:30:30.599Z,7.10
2023-03-29T17:33:36.125Z,7.16
2023-03-29T17:36:41.388Z,6.83
2023-03-29T17:39:46.195Z,6.65
2023-03-29T17:42:52.151Z,6.54
2023-03-29T17:45:56.104Z,7.14
2023-03-29T17:49:01.167Z,6.65
2023-03-29T17:52:07.005Z,6.42
2023-03-29T17:55:13.961Z,6.47
2023-03-29T17:58:17.538Z,6.25
2023-03-29T18:01:21.498Z,6.21
2023-03-29T18:04:25.146Z,6.03
2023-03-29T18:07:30.295Z,5.92
2023-03-29T18:10:33.801Z,5.43
2023-03-29T18:13:37.196Z,5.34
2023-03-29T18:16:41.613Z,5.51
2023-03-29T18:19:45.260Z,5.09
2023-03-29T18:22:50.037Z,5.20
2023-03-29T18:25:53.417Z,5.46
2023-03-29T18:28:56.852Z,5.22
2023-03-29T18:32:03.122Z,5.23
2023-03-29T18:35:07.454Z,5.09
2023-03-29T18:38:12.213Z,4.90
2023-03-29T18:41:15.946Z,5.01
2023-03-29T18:44:20.577Z,4.82
2023-03-29T18:47:24.194Z,4.53
2023-03-29T18:50:27.802Z,4.20
2023-03-29T18:53:32.605Z,3.98
2023-03-29T18:56:36.656Z,3.67
2023-03-29T18:59:39.981Z,3.76
2023-03-29T19:02:43.632Z,3.80
2023-03-29T19:05:52.851Z,3.83
2023-03-29T19:08:58.512Z,3.88
2023-03-29T19:12:02.635Z,3.92
2023-03-29T19:15:07.189Z,3.75
2023-03-29T19:18:12.084Z,4.05
2023-03-29T19:21:15.532Z,4.27
2023-03-29T19:24:21.061Z,4.19
2023-03-29T19:27:24.449Z,4.16
2023-03-29T19:30:28.765Z,4.06
2023-03-29T19:33:33.391Z,4.17
2023-03-29T19:36:36.998Z,4.06
2023-03-29T19:39:42.381Z,3.98
2023-03-29T19:42:47.597Z,4.06
2023-03-29T19:45:52.631Z,3.91
2023-03-29T19:48:56.731Z,3.90
2023-03-29T19:52:00.191Z,3.96
2023-03-29T19:55:06.641Z,4.02
2023-03-29T19:58:13.661Z,3.91
2023-03-29T20:01:23.172Z,3.96
2023-03-29T20:04:28.803Z,3.92
2023-03-29T20:07:32.333Z,3.80
2023-03-29T20:10:40.114Z,3.81
2023-03-29T20:13:45.753Z,3.76
2023-03-29T20:16:50.729Z,3.76
2023-03-29T20:19:55.597Z,3.85
2023-03-29T20:23:04.562Z,3.89
2023-03-29T20:26:13.347Z,3.96
2023-03-29T20:29:16.884Z,3.97
2023-03-29T20:32:20.835Z,3.93
2023-03-29T20:35:24.478Z,3.88
2023-03-29T20:38:27.950Z,3.81
2023-03-29T20:41:38.560Z,3.98
2023-03-29T20:44:42.282Z,3.90
2023-03-29T20:47:50.430Z,3.82
2023-03-29T20:50:54.322Z,3.91
2023-03-29T20:54:02.650Z,4.03
2023-03-29T20:57:08.130Z,4.12
2023-03-29T21:00:13.015Z,4.09
2023-03-29T21:03:17.065Z,4.24
2023-03-29T21:06:20.996Z,4.36
2023-03-29T21:09:25.662Z,4.29
2023-03-29T21:12:30.886Z,4.21
2023-03-29T21:15:34.369Z,4.28
2023-03-29T21:18:39.040Z,4.28
2023-03-29T21:21:43.025Z,4.40
2023-03-29T21:24:47.254Z,4.29
2023-03-29T21:27:52.533Z,4.53
2023-03-29T21:30:56.572Z,4.41
2023-03-29T21:34:01.575Z,4.40
2023-03-29T21:37:05.154Z,4.40
2023-03-29T21:40:10.868Z,4.61
2023-03-29T21:43:16.160Z,4.57
2023-03-29T21:46:19.695Z,4.77
2023-03-29T21:49:25.494Z,4.70
2023-03-29T21:52:29.428Z,4.76
2023-03-29T21:55:37.858Z,4.62
2023-03-29T21:58:43.765Z,4.57
2023-03-29T22:01:47.581Z,4.71
2023-03-29T22:04:51.041Z,4.68
2023-03-29T22:07:54.622Z,4.73
2023-03-29T22:10:58.663Z,4.64
2023-03-29T22:14:04.199Z,4.79
2023-03-29T22:17:08.050Z,4.69
2023-03-29T22:20:14.097Z,4.65
2023-03-29T22:23:17.681Z,4.73
2023-03-29T22:26:23.407Z,4.77
2023-03-29T22:29:28.422Z,4.72
2023-03-29T22:32:32.399Z,4.79
2023-03-29T22:35:36.170Z,4.73
2023-03-29T22:38:40.554Z,4.84
2023-03-29T22:41:43.942Z,4.86
2023-03-29T22:44:48.807Z,4.82
2023-03-29T22:47:52.389Z,4.78
2023-03-29T22:50:55.923Z,4.79
2023-03-29T22:53:59.555Z,4.70
2023-03-29T22:57:03.274Z,4.77
2023-03-29T23:00:10.537Z,4.76
2023-03-29T23:03:13.883Z,4.98
2023-03-29T23:06:17.232Z,4.78
2023-03-29T23:09:21.156Z,4.90
2023-03-29T23:12:25.462Z,4.79
2023-03-29T23:15:32.297Z,4.80
2023-03-29T23:18:37.721Z,4.88
2023-03-29T23:21:42.404Z,4.80
2023-03-29T23:24:47.440Z,4.84
2023-03-29T23:27:51.065Z,4.78
2023-03-29T23:31:02.813Z,4.75
2023-03-29T23:34:06.838Z,4.76
2023-03-29T23:37:10.286Z,4.85
2023-03-29T23:40:15.673Z,4.77
2023-03-29T23:43:20.207Z,4.85
2023-03-29T23:46:26.158Z,4.80
2023-03-29T23:49:30.192Z,4.82
2023-03-29T23:52:35.779Z,4.88
2023-03-29T23:55:39.313Z,4.90
2023-03-29T23:58:42.762Z,4.89
